メインページ
METAR-TAF:

METAR-TAF

空港 :

ロンドン・ヒースロー空港, イングランド

緯度: 51-29N, 経度: 000-27W, 海抜: 24m

現時点の気象観測

当レポートは41分前の09:50(UTC)に作成
西/南西の風 9kt
気温 21°C
湿度 64%
気圧 1023 hPa
視程10km以上
高度2500ftの千切れ雲あり
高度3300ftの曇り

METAR: EGLL 190950Z AUTO 25009KT 9999 BKN025 OVC033 21/14 Q1023 NOSIG

時間: 11:31 (10:31 UTC)

予報

当レポートは5時間16分前の05:15(UTC)に作成
予報は19日の 06時(UTC)から 20日の 12時(UTC)まで有効
西/南西の風 12kt
視程10km以上
高度3500ftの雲は散在している
19日の 06時(UTC)から 19日の 08時(UTC)まで一時的に
高度1400ftの千切れ雲あり
20日の 00時(UTC)から 20日の 09時(UTC)まで一時的に
高度800ftの千切れ雲あり
確率 30%
20日の 02時(UTC)から 20日の 07時(UTC)まで
視程: 5000m
高度400ftの千切れ雲あり
煙霧

TAF: EGLL 190515Z 1906/2012 25012KT 9999 SCT035 TEMPO 1906/1908 BKN014 TEMPO 2000/2009 BKN008 PROB30 2002/2007 5000 HZ BKN004

4,000以上の空港の気象観測と天気予報(METAR報とTAF報)

利用可能な観測所は地図上に黄色い丸と赤い丸で示す。

丸の上にカーソルを重ねると観測所名を参照できる。

次にクリックすると気象観測と天気予報を参照できる。

マップの切り替え:黒色「×」印の緑ボタンをクリックして拡大、「-」印の緑ボタンをクリックして縮小、緑色の三角印をクリックして隣りの地図に切り替え


METAR-TAF: